sensor_id;sensor_type;location;lat;lon;timestamp;temperature;humidity
34766;DHT22;20984;43.508;1.504;2024-02-21T00:00:40;5.40;99.90
34766;DHT22;20984;43.508;1.504;2024-02-21T00:03:07;5.40;99.90
34766;DHT22;20984;43.508;1.504;2024-02-21T00:05:32;5.40;99.90
34766;DHT22;20984;43.508;1.504;2024-02-21T00:07:58;5.40;99.90
34766;DHT22;20984;43.508;1.504;2024-02-21T00:10:24;5.40;99.90
34766;DHT22;20984;43.508;1.504;2024-02-21T00:12:51;5.50;99.90
34766;DHT22;20984;43.508;1.504;2024-02-21T00:15:16;5.50;99.90
34766;DHT22;20984;43.508;1.504;2024-02-21T00:17:43;5.50;99.90
34766;DHT22;20984;43.508;1.504;2024-02-21T00:20:08;5.40;99.90
34766;DHT22;20984;43.508;1.504;2024-02-21T00:22:34;5.40;99.90
34766;DHT22;20984;43.508;1.504;2024-02-21T00:25:00;5.40;99.90
34766;DHT22;20984;43.508;1.504;2024-02-21T00:27:25;5.40;99.90
34766;DHT22;20984;43.508;1.504;2024-02-21T00:29:51;5.40;99.90
34766;DHT22;20984;43.508;1.504;2024-02-21T00:32:16;5.40;99.90
34766;DHT22;20984;43.508;1.504;2024-02-21T00:34:42;5.40;99.90
34766;DHT22;20984;43.508;1.504;2024-02-21T00:37:07;5.40;99.90
34766;DHT22;20984;43.508;1.504;2024-02-21T00:39:33;5.40;99.90
34766;DHT22;20984;43.508;1.504;2024-02-21T00:41:59;5.40;99.90
34766;DHT22;20984;43.508;1.504;2024-02-21T00:44:24;5.40;99.90
34766;DHT22;20984;43.508;1.504;2024-02-21T00:46:50;5.40;99.90
34766;DHT22;20984;43.508;1.504;2024-02-21T00:49:16;5.40;99.90
34766;DHT22;20984;43.508;1.504;2024-02-21T00:51:41;5.40;99.90
34766;DHT22;20984;43.508;1.504;2024-02-21T00:54:07;5.40;99.90
34766;DHT22;20984;43.508;1.504;2024-02-21T00:56:32;5.50;99.90
34766;DHT22;20984;43.508;1.504;2024-02-21T00:58:58;5.50;99.90
34766;DHT22;20984;43.508;1.504;2024-02-21T01:01:24;5.50;99.90
34766;DHT22;20984;43.508;1.504;2024-02-21T01:03:50;5.50;99.90
34766;DHT22;20984;43.508;1.504;2024-02-21T01:06:19;5.50;99.90
34766;DHT22;20984;43.508;1.504;2024-02-21T01:08:44;5.50;99.90
34766;DHT22;20984;43.508;1.504;2024-02-21T01:11:10;5.50;99.90
34766;DHT22;20984;43.508;1.504;2024-02-21T01:13:35;5.50;99.90
34766;DHT22;20984;43.508;1.504;2024-02-21T01:16:01;5.50;99.90
34766;DHT22;20984;43.508;1.504;2024-02-21T01:18:26;5.50;99.90
34766;DHT22;20984;43.508;1.504;2024-02-21T01:20:52;5.50;99.90
34766;DHT22;20984;43.508;1.504;2024-02-21T01:23:17;5.50;99.90
34766;DHT22;20984;43.508;1.504;2024-02-21T01:25:43;5.60;99.90
34766;DHT22;20984;43.508;1.504;2024-02-21T01:28:08;5.50;99.90
34766;DHT22;20984;43.508;1.504;2024-02-21T01:30:34;5.50;99.90
34766;DHT22;20984;43.508;1.504;2024-02-21T01:32:59;5.50;99.90
34766;DHT22;20984;43.508;1.504;2024-02-21T01:35:25;5.50;99.90
34766;DHT22;20984;43.508;1.504;2024-02-21T01:37:51;5.40;99.90
34766;DHT22;20984;43.508;1.504;2024-02-21T01:40:17;5.40;99.90
34766;DHT22;20984;43.508;1.504;2024-02-21T01:42:42;5.40;99.90
34766;DHT22;20984;43.508;1.504;2024-02-21T01:45:08;5.30;99.90
34766;DHT22;20984;43.508;1.504;2024-02-21T01:47:33;5.40;99.90
34766;DHT22;20984;43.508;1.504;2024-02-21T01:49:59;5.30;99.90
34766;DHT22;20984;43.508;1.504;2024-02-21T01:52:27;5.30;99.90
34766;DHT22;20984;43.508;1.504;2024-02-21T01:54:53;5.20;99.90
34766;DHT22;20984;43.508;1.504;2024-02-21T01:57:19;5.20;99.90
34766;DHT22;20984;43.508;1.504;2024-02-21T01:59:44;5.10;99.90
34766;DHT22;20984;43.508;1.504;2024-02-21T02:02:10;5.10;99.90
34766;DHT22;20984;43.508;1.504;2024-02-21T02:04:37;5.00;99.90
34766;DHT22;20984;43.508;1.504;2024-02-21T02:07:03;5.00;99.90
34766;DHT22;20984;43.508;1.504;2024-02-21T02:09:30;5.00;99.90
34766;DHT22;20984;43.508;1.504;2024-02-21T02:11:56;4.90;99.90
34766;DHT22;20984;43.508;1.504;2024-02-21T02:14:25;4.90;99.90
34766;DHT22;20984;43.508;1.504;2024-02-21T02:16:51;4.80;99.90
34766;DHT22;20984;43.508;1.504;2024-02-21T02:19:16;4.80;99.90
34766;DHT22;20984;43.508;1.504;2024-02-21T02:21:42;4.80;99.90
34766;DHT22;20984;43.508;1.504;2024-02-21T02:24:11;4.80;99.90
34766;DHT22;20984;43.508;1.504;2024-02-21T02:26:37;4.80;99.90
34766;DHT22;20984;43.508;1.504;2024-02-21T02:29:02;4.80;99.90
34766;DHT22;20984;43.508;1.504;2024-02-21T02:31:28;4.70;99.90
34766;DHT22;20984;43.508;1.504;2024-02-21T02:33:54;4.70;99.90
34766;DHT22;20984;43.508;1.504;2024-02-21T02:36:19;4.70;99.90
34766;DHT22;20984;43.508;1.504;2024-02-21T02:38:45;4.70;99.90
34766;DHT22;20984;43.508;1.504;2024-02-21T02:41:10;4.70;99.90
34766;DHT22;20984;43.508;1.504;2024-02-21T02:43:36;4.70;99.90
34766;DHT22;20984;43.508;1.504;2024-02-21T02:46:02;4.60;99.90
34766;DHT22;20984;43.508;1.504;2024-02-21T02:48:27;4.60;99.90
34766;DHT22;20984;43.508;1.504;2024-02-21T02:50:53;4.60;99.90
34766;DHT22;20984;43.508;1.504;2024-02-21T02:53:18;4.60;99.90
34766;DHT22;20984;43.508;1.504;2024-02-21T02:55:44;4.50;99.90
34766;DHT22;20984;43.508;1.504;2024-02-21T02:58:10;4.50;99.90
34766;DHT22;20984;43.508;1.504;2024-02-21T03:00:35;4.50;99.90
34766;DHT22;20984;43.508;1.504;2024-02-21T03:03:01;4.40;99.90
34766;DHT22;20984;43.508;1.504;2024-02-21T03:05:29;4.40;99.90
34766;DHT22;20984;43.508;1.504;2024-02-21T03:07:54;4.30;99.90
34766;DHT22;20984;43.508;1.504;2024-02-21T03:10:20;4.30;99.90
34766;DHT22;20984;43.508;1.504;2024-02-21T03:12:46;4.20;99.90
34766;DHT22;20984;43.508;1.504;2024-02-21T03:15:12;4.20;99.90
34766;DHT22;20984;43.508;1.504;2024-02-21T03:17:38;4.10;99.90
34766;DHT22;20984;43.508;1.504;2024-02-21T03:20:03;4.10;99.90
34766;DHT22;20984;43.508;1.504;2024-02-21T03:22:35;4.10;99.90
34766;DHT22;20984;43.508;1.504;2024-02-21T03:25:01;4.00;99.90
34766;DHT22;20984;43.508;1.504;2024-02-21T03:27:26;4.00;99.90
34766;DHT22;20984;43.508;1.504;2024-02-21T03:29:52;4.00;99.90
34766;DHT22;20984;43.508;1.504;2024-02-21T03:32:18;3.90;99.90
34766;DHT22;20984;43.508;1.504;2024-02-21T03:34:43;3.90;99.90
34766;DHT22;20984;43.508;1.504;2024-02-21T03:37:09;3.80;99.90
34766;DHT22;20984;43.508;1.504;2024-02-21T03:39:34;3.80;99.90
34766;DHT22;20984;43.508;1.504;2024-02-21T03:42:00;3.80;99.90
34766;DHT22;20984;43.508;1.504;2024-02-21T03:44:32;3.80;99.90
34766;DHT22;20984;43.508;1.504;2024-02-21T03:46:58;3.80;99.90
34766;DHT22;20984;43.508;1.504;2024-02-21T03:49:24;3.80;99.90
34766;DHT22;20984;43.508;1.504;2024-02-21T03:51:50;3.80;99.90
34766;DHT22;20984;43.508;1.504;2024-02-21T03:54:15;3.80;99.90
34766;DHT22;20984;43.508;1.504;2024-02-21T03:56:41;3.70;99.90
34766;DHT22;20984;43.508;1.504;2024-02-21T03:59:06;3.70;99.90
34766;DHT22;20984;43.508;1.504;2024-02-21T04:01:33;3.70;99.90
34766;DHT22;20984;43.508;1.504;2024-02-21T04:03:59;3.70;99.90
34766;DHT22;20984;43.508;1.504;2024-02-21T04:06:24;3.60;99.90
34766;DHT22;20984;43.508;1.504;2024-02-21T04:08:50;3.60;99.90
34766;DHT22;20984;43.508;1.504;2024-02-21T04:11:15;3.60;99.90
34766;DHT22;20984;43.508;1.504;2024-02-21T04:13:42;3.50;99.90
34766;DHT22;20984;43.508;1.504;2024-02-21T04:16:08;3.60;99.90
34766;DHT22;20984;43.508;1.504;2024-02-21T04:18:33;3.50;99.90
34766;DHT22;20984;43.508;1.504;2024-02-21T04:20:59;3.40;99.90
34766;DHT22;20984;43.508;1.504;2024-02-21T04:23:24;3.40;99.90
34766;DHT22;20984;43.508;1.504;2024-02-21T04:25:50;3.30;99.90
34766;DHT22;20984;43.508;1.504;2024-02-21T04:28:15;3.30;99.90
34766;DHT22;20984;43.508;1.504;2024-02-21T04:30:41;3.30;99.90
34766;DHT22;20984;43.508;1.504;2024-02-21T04:33:06;3.30;99.90
34766;DHT22;20984;43.508;1.504;2024-02-21T04:35:32;3.40;99.90
34766;DHT22;20984;43.508;1.504;2024-02-21T04:37:57;3.40;99.90
34766;DHT22;20984;43.508;1.504;2024-02-21T04:40:23;3.40;99.90
34766;DHT22;20984;43.508;1.504;2024-02-21T04:42:48;3.40;99.90
34766;DHT22;20984;43.508;1.504;2024-02-21T04:45:14;3.30;99.90
34766;DHT22;20984;43.508;1.504;2024-02-21T04:47:39;3.30;99.90
34766;DHT22;20984;43.508;1.504;2024-02-21T04:50:05;3.30;99.90
34766;DHT22;20984;43.508;1.504;2024-02-21T04:52:31;3.20;99.90
34766;DHT22;20984;43.508;1.504;2024-02-21T04:54:56;3.20;99.90
34766;DHT22;20984;43.508;1.504;2024-02-21T04:57:22;3.20;99.90
34766;DHT22;20984;43.508;1.504;2024-02-21T04:59:47;3.10;99.90
34766;DHT22;20984;43.508;1.504;2024-02-21T05:02:13;3.10;99.90
34766;DHT22;20984;43.508;1.504;2024-02-21T05:04:39;3.10;99.90
34766;DHT22;20984;43.508;1.504;2024-02-21T05:07:05;3.10;99.90
34766;DHT22;20984;43.508;1.504;2024-02-21T05:09:31;3.10;99.90
34766;DHT22;20984;43.508;1.504;2024-02-21T05:11:56;3.00;99.90
34766;DHT22;20984;43.508;1.504;2024-02-21T05:14:24;3.10;99.90
34766;DHT22;20984;43.508;1.504;2024-02-21T05:16:50;3.00;99.90
34766;DHT22;20984;43.508;1.504;2024-02-21T05:19:15;3.10;99.90
34766;DHT22;20984;43.508;1.504;2024-02-21T05:21:41;3.00;99.90
34766;DHT22;20984;43.508;1.504;2024-02-21T05:24:06;3.00;99.90
34766;DHT22;20984;43.508;1.504;2024-02-21T05:26:32;3.00;99.90
34766;DHT22;20984;43.508;1.504;2024-02-21T05:28:57;3.00;99.90
34766;DHT22;20984;43.508;1.504;2024-02-21T05:31:24;3.00;99.90
34766;DHT22;20984;43.508;1.504;2024-02-21T05:33:50;2.90;99.90
34766;DHT22;20984;43.508;1.504;2024-02-21T05:36:16;2.90;99.90
34766;DHT22;20984;43.508;1.504;2024-02-21T05:38:41;2.90;99.90
34766;DHT22;20984;43.508;1.504;2024-02-21T05:41:07;2.80;99.90
34766;DHT22;20984;43.508;1.504;2024-02-21T05:43:32;2.90;99.90
34766;DHT22;20984;43.508;1.504;2024-02-21T05:45:58;2.90;99.90
34766;DHT22;20984;43.508;1.504;2024-02-21T05:48:24;2.90;99.90
34766;DHT22;20984;43.508;1.504;2024-02-21T05:50:49;2.90;99.90
34766;DHT22;20984;43.508;1.504;2024-02-21T05:53:15;2.90;99.90
34766;DHT22;20984;43.508;1.504;2024-02-21T05:55:41;2.90;99.90
34766;DHT22;20984;43.508;1.504;2024-02-21T05:58:06;2.90;99.90
34766;DHT22;20984;43.508;1.504;2024-02-21T06:00:32;2.90;99.90
34766;DHT22;20984;43.508;1.504;2024-02-21T06:02:58;2.90;99.90
34766;DHT22;20984;43.508;1.504;2024-02-21T06:05:23;2.90;99.90
34766;DHT22;20984;43.508;1.504;2024-02-21T06:07:49;2.80;99.90
34766;DHT22;20984;43.508;1.504;2024-02-21T06:10:15;2.80;99.90
34766;DHT22;20984;43.508;1.504;2024-02-21T06:12:40;2.80;99.90
34766;DHT22;20984;43.508;1.504;2024-02-21T06:15:06;2.80;99.90
34766;DHT22;20984;43.508;1.504;2024-02-21T06:17:31;2.80;99.90
34766;DHT22;20984;43.508;1.504;2024-02-21T06:19:57;2.80;99.90
34766;DHT22;20984;43.508;1.504;2024-02-21T06:22:22;2.80;99.90
34766;DHT22;20984;43.508;1.504;2024-02-21T06:24:48;2.70;99.90
34766;DHT22;20984;43.508;1.504;2024-02-21T06:27:13;2.70;99.90
34766;DHT22;20984;43.508;1.504;2024-02-21T06:29:41;2.60;99.90
34766;DHT22;20984;43.508;1.504;2024-02-21T06:32:07;2.60;99.90
34766;DHT22;20984;43.508;1.504;2024-02-21T06:34:32;2.60;99.90
34766;DHT22;20984;43.508;1.504;2024-02-21T06:36:58;2.60;99.90
34766;DHT22;20984;43.508;1.504;2024-02-21T06:39:23;2.60;99.90
34766;DHT22;20984;43.508;1.504;2024-02-21T06:41:49;2.60;99.90
34766;DHT22;20984;43.508;1.504;2024-02-21T06:44:19;2.60;99.90
34766;DHT22;20984;43.508;1.504;2024-02-21T06:46:44;2.60;99.90
34766;DHT22;20984;43.508;1.504;2024-02-21T06:49:10;2.70;99.90
34766;DHT22;20984;43.508;1.504;2024-02-21T06:51:44;2.70;99.90
34766;DHT22;20984;43.508;1.504;2024-02-21T06:54:09;2.80;99.90
34766;DHT22;20984;43.508;1.504;2024-02-21T06:56:35;2.80;99.90
34766;DHT22;20984;43.508;1.504;2024-02-21T06:59:01;2.90;99.90
34766;DHT22;20984;43.508;1.504;2024-02-21T07:01:28;2.90;99.90
34766;DHT22;20984;43.508;1.504;2024-02-21T07:03:54;2.90;99.90
34766;DHT22;20984;43.508;1.504;2024-02-21T07:06:20;3.00;99.90
34766;DHT22;20984;43.508;1.504;2024-02-21T07:08:45;3.00;99.90
34766;DHT22;20984;43.508;1.504;2024-02-21T07:11:11;3.00;99.90
34766;DHT22;20984;43.508;1.504;2024-02-21T07:13:36;3.10;99.90
34766;DHT22;20984;43.508;1.504;2024-02-21T07:16:02;3.10;99.90
34766;DHT22;20984;43.508;1.504;2024-02-21T07:18:27;3.10;99.90
34766;DHT22;20984;43.508;1.504;2024-02-21T07:20:53;3.20;99.90
34766;DHT22;20984;43.508;1.504;2024-02-21T07:23:18;3.30;99.90
34766;DHT22;20984;43.508;1.504;2024-02-21T07:25:44;3.30;99.90
34766;DHT22;20984;43.508;1.504;2024-02-21T07:28:10;3.40;99.90
34766;DHT22;20984;43.508;1.504;2024-02-21T07:30:35;3.40;99.90
34766;DHT22;20984;43.508;1.504;2024-02-21T07:33:01;3.40;99.90
34766;DHT22;20984;43.508;1.504;2024-02-21T07:35:26;3.50;99.90
34766;DHT22;20984;43.508;1.504;2024-02-21T07:37:52;3.50;99.90
34766;DHT22;20984;43.508;1.504;2024-02-21T07:40:18;3.70;99.90
34766;DHT22;20984;43.508;1.504;2024-02-21T07:42:43;3.70;99.90
34766;DHT22;20984;43.508;1.504;2024-02-21T07:45:09;3.80;99.90
34766;DHT22;20984;43.508;1.504;2024-02-21T07:47:35;3.90;99.90
34766;DHT22;20984;43.508;1.504;2024-02-21T07:50:01;3.90;99.90
34766;DHT22;20984;43.508;1.504;2024-02-21T07:52:27;4.10;99.90
34766;DHT22;20984;43.508;1.504;2024-02-21T07:54:53;4.20;99.90
34766;DHT22;20984;43.508;1.504;2024-02-21T07:57:18;4.30;99.90
34766;DHT22;20984;43.508;1.504;2024-02-21T07:59:44;4.40;99.90
34766;DHT22;20984;43.508;1.504;2024-02-21T08:02:09;4.50;99.90
34766;DHT22;20984;43.508;1.504;2024-02-21T08:04:35;4.60;99.90
34766;DHT22;20984;43.508;1.504;2024-02-21T08:07:01;4.70;99.90
34766;DHT22;20984;43.508;1.504;2024-02-21T08:09:28;4.80;99.90
34766;DHT22;20984;43.508;1.504;2024-02-21T08:11:56;4.80;99.90
34766;DHT22;20984;43.508;1.504;2024-02-21T08:14:22;4.90;99.90
34766;DHT22;20984;43.508;1.504;2024-02-21T08:16:52;5.00;99.90
34766;DHT22;20984;43.508;1.504;2024-02-21T08:19:20;5.10;99.90
34766;DHT22;20984;43.508;1.504;2024-02-21T08:21:45;5.20;99.90
34766;DHT22;20984;43.508;1.504;2024-02-21T08:24:14;5.20;99.90
34766;DHT22;20984;43.508;1.504;2024-02-21T08:26:40;5.30;99.90
34766;DHT22;20984;43.508;1.504;2024-02-21T08:29:06;5.30;99.90
34766;DHT22;20984;43.508;1.504;2024-02-21T08:31:31;5.40;99.90
34766;DHT22;20984;43.508;1.504;2024-02-21T08:33:57;5.40;99.90
34766;DHT22;20984;43.508;1.504;2024-02-21T08:36:28;5.40;99.90
34766;DHT22;20984;43.508;1.504;2024-02-21T08:38:54;5.50;99.90
34766;DHT22;20984;43.508;1.504;2024-02-21T08:41:19;5.50;99.90
34766;DHT22;20984;43.508;1.504;2024-02-21T08:43:47;5.50;99.90
34766;DHT22;20984;43.508;1.504;2024-02-21T08:46:12;5.50;99.90
34766;DHT22;20984;43.508;1.504;2024-02-21T08:48:38;5.50;99.90
34766;DHT22;20984;43.508;1.504;2024-02-21T08:51:03;5.50;99.90
34766;DHT22;20984;43.508;1.504;2024-02-21T08:53:29;5.60;99.90
34766;DHT22;20984;43.508;1.504;2024-02-21T08:55:54;5.70;99.90
34766;DHT22;20984;43.508;1.504;2024-02-21T08:58:20;5.70;99.90
34766;DHT22;20984;43.508;1.504;2024-02-21T09:00:45;5.80;99.90
34766;DHT22;20984;43.508;1.504;2024-02-21T09:03:11;6.00;99.90
34766;DHT22;20984;43.508;1.504;2024-02-21T09:05:36;6.10;99.90
34766;DHT22;20984;43.508;1.504;2024-02-21T09:08:02;6.20;99.90
34766;DHT22;20984;43.508;1.504;2024-02-21T09:10:27;6.40;99.90
34766;DHT22;20984;43.508;1.504;2024-02-21T09:12:53;6.60;99.90
34766;DHT22;20984;43.508;1.504;2024-02-21T09:15:18;6.70;99.90
34766;DHT22;20984;43.508;1.504;2024-02-21T09:17:44;6.80;99.90
34766;DHT22;20984;43.508;1.504;2024-02-21T09:20:10;6.90;99.90
34766;DHT22;20984;43.508;1.504;2024-02-21T09:22:37;7.00;99.90
34766;DHT22;20984;43.508;1.504;2024-02-21T09:25:05;7.10;99.90
34766;DHT22;20984;43.508;1.504;2024-02-21T09:27:30;7.30;99.90
34766;DHT22;20984;43.508;1.504;2024-02-21T09:29:56;7.50;99.90
34766;DHT22;20984;43.508;1.504;2024-02-21T09:32:22;7.80;99.90
34766;DHT22;20984;43.508;1.504;2024-02-21T09:34:47;8.00;99.90
34766;DHT22;20984;43.508;1.504;2024-02-21T09:37:13;8.30;99.90
34766;DHT22;20984;43.508;1.504;2024-02-21T09:39:38;8.70;99.90
34766;DHT22;20984;43.508;1.504;2024-02-21T09:42:05;9.10;99.90
34766;DHT22;20984;43.508;1.504;2024-02-21T09:44:33;9.30;99.90
34766;DHT22;20984;43.508;1.504;2024-02-21T09:47:03;9.50;99.90
34766;DHT22;20984;43.508;1.504;2024-02-21T09:49:33;9.60;99.90
34766;DHT22;20984;43.508;1.504;2024-02-21T09:52:02;9.80;99.90
34766;DHT22;20984;43.508;1.504;2024-02-21T09:54:29;10.00;99.90
34766;DHT22;20984;43.508;1.504;2024-02-21T09:56:56;10.10;99.90
34766;DHT22;20984;43.508;1.504;2024-02-21T09:59:21;10.20;99.90
34766;DHT22;20984;43.508;1.504;2024-02-21T10:01:47;10.30;99.90
34766;DHT22;20984;43.508;1.504;2024-02-21T10:04:13;10.50;99.90
34766;DHT22;20984;43.508;1.504;2024-02-21T10:06:38;10.70;99.90
34766;DHT22;20984;43.508;1.504;2024-02-21T10:09:07;10.80;99.90
34766;DHT22;20984;43.508;1.504;2024-02-21T10:11:33;11.00;99.90
34766;DHT22;20984;43.508;1.504;2024-02-21T10:14:05;11.20;99.90
34766;DHT22;20984;43.508;1.504;2024-02-21T10:16:31;11.30;99.90
34766;DHT22;20984;43.508;1.504;2024-02-21T10:18:57;11.40;99.90
34766;DHT22;20984;43.508;1.504;2024-02-21T10:21:22;11.50;99.90
34766;DHT22;20984;43.508;1.504;2024-02-21T10:23:48;11.70;99.90
34766;DHT22;20984;43.508;1.504;2024-02-21T10:26:17;11.80;99.90
34766;DHT22;20984;43.508;1.504;2024-02-21T10:28:43;11.80;99.90
34766;DHT22;20984;43.508;1.504;2024-02-21T10:31:31;11.90;99.90
34766;DHT22;20984;43.508;1.504;2024-02-21T10:34:02;11.90;99.90
34766;DHT22;20984;43.508;1.504;2024-02-21T10:36:30;12.10;99.90
34766;DHT22;20984;43.508;1.504;2024-02-21T10:38:56;12.30;99.90
34766;DHT22;20984;43.508;1.504;2024-02-21T10:41:22;12.50;99.90
34766;DHT22;20984;43.508;1.504;2024-02-21T10:43:49;12.80;99.90
34766;DHT22;20984;43.508;1.504;2024-02-21T10:46:18;13.10;99.90
34766;DHT22;20984;43.508;1.504;2024-02-21T10:48:44;13.20;99.90
34766;DHT22;20984;43.508;1.504;2024-02-21T10:51:20;13.40;99.90
34766;DHT22;20984;43.508;1.504;2024-02-21T10:56:16;13.60;99.90
34766;DHT22;20984;43.508;1.504;2024-02-21T10:58:46;13.60;99.90
34766;DHT22;20984;43.508;1.504;2024-02-21T11:01:13;13.70;99.90
34766;DHT22;20984;43.508;1.504;2024-02-21T11:03:43;13.70;99.90
34766;DHT22;20984;43.508;1.504;2024-02-21T11:06:10;13.80;99.90
34766;DHT22;20984;43.508;1.504;2024-02-21T11:08:36;13.80;99.90
34766;DHT22;20984;43.508;1.504;2024-02-21T11:11:01;14.00;99.90
34766;DHT22;20984;43.508;1.504;2024-02-21T11:13:30;14.10;99.90
34766;DHT22;20984;43.508;1.504;2024-02-21T11:16:07;14.20;99.90
34766;DHT22;20984;43.508;1.504;2024-02-21T11:18:33;14.30;99.90
34766;DHT22;20984;43.508;1.504;2024-02-21T11:20:58;14.50;99.90
34766;DHT22;20984;43.508;1.504;2024-02-21T11:23:25;14.50;99.90
34766;DHT22;20984;43.508;1.504;2024-02-21T11:25:50;14.60;99.90
34766;DHT22;20984;43.508;1.504;2024-02-21T11:28:16;14.60;99.90
34766;DHT22;20984;43.508;1.504;2024-02-21T11:30:50;14.60;99.90
34766;DHT22;20984;43.508;1.504;2024-02-21T11:33:16;14.50;99.90
34766;DHT22;20984;43.508;1.504;2024-02-21T11:35:42;14.50;99.90
34766;DHT22;20984;43.508;1.504;2024-02-21T11:38:11;14.50;99.90
34766;DHT22;20984;43.508;1.504;2024-02-21T11:40:40;14.50;99.90
34766;DHT22;20984;43.508;1.504;2024-02-21T11:43:06;14.60;99.90
34766;DHT22;20984;43.508;1.504;2024-02-21T11:45:32;14.70;99.90
34766;DHT22;20984;43.508;1.504;2024-02-21T11:47:59;14.70;99.90
34766;DHT22;20984;43.508;1.504;2024-02-21T11:50:26;14.80;99.90
34766;DHT22;20984;43.508;1.504;2024-02-21T11:52:54;14.80;99.90
34766;DHT22;20984;43.508;1.504;2024-02-21T11:55:19;14.80;99.90
34766;DHT22;20984;43.508;1.504;2024-02-21T11:57:47;14.80;99.90
34766;DHT22;20984;43.508;1.504;2024-02-21T12:00:13;14.80;99.90
34766;DHT22;20984;43.508;1.504;2024-02-21T12:02:40;15.00;99.90
34766;DHT22;20984;43.508;1.504;2024-02-21T12:05:05;15.10;99.90
34766;DHT22;20984;43.508;1.504;2024-02-21T12:07:31;15.20;99.90
34766;DHT22;20984;43.508;1.504;2024-02-21T12:09:58;15.30;99.90
34766;DHT22;20984;43.508;1.504;2024-02-21T12:12:24;15.40;99.90
34766;DHT22;20984;43.508;1.504;2024-02-21T12:14:56;15.50;99.90
34766;DHT22;20984;43.508;1.504;2024-02-21T12:17:24;15.40;99.90
34766;DHT22;20984;43.508;1.504;2024-02-21T12:19:50;15.50;99.90
34766;DHT22;20984;43.508;1.504;2024-02-21T12:22:16;15.40;99.90
34766;DHT22;20984;43.508;1.504;2024-02-21T12:24:41;15.60;99.90
34766;DHT22;20984;43.508;1.504;2024-02-21T12:27:12;15.70;99.90
34766;DHT22;20984;43.508;1.504;2024-02-21T12:29:38;15.70;99.90
34766;DHT22;20984;43.508;1.504;2024-02-21T12:32:03;15.70;99.90
34766;DHT22;20984;43.508;1.504;2024-02-21T12:34:29;15.60;99.90
34766;DHT22;20984;43.508;1.504;2024-02-21T12:36:58;15.70;99.90
34766;DHT22;20984;43.508;1.504;2024-02-21T12:39:23;15.80;99.90
34766;DHT22;20984;43.508;1.504;2024-02-21T12:41:49;15.80;99.90
34766;DHT22;20984;43.508;1.504;2024-02-21T12:44:15;15.80;99.90
34766;DHT22;20984;43.508;1.504;2024-02-21T12:46:41;15.80;99.90
34766;DHT22;20984;43.508;1.504;2024-02-21T12:49:07;16.00;99.90
34766;DHT22;20984;43.508;1.504;2024-02-21T12:51:35;15.90;99.90
34766;DHT22;20984;43.508;1.504;2024-02-21T12:54:01;16.00;99.90
34766;DHT22;20984;43.508;1.504;2024-02-21T12:56:28;16.00;99.90
34766;DHT22;20984;43.508;1.504;2024-02-21T12:58:55;16.00;99.90
34766;DHT22;20984;43.508;1.504;2024-02-21T13:01:20;16.10;99.90
34766;DHT22;20984;43.508;1.504;2024-02-21T13:03:46;16.10;99.90
34766;DHT22;20984;43.508;1.504;2024-02-21T13:06:12;16.00;99.90
34766;DHT22;20984;43.508;1.504;2024-02-21T13:08:38;16.20;99.90
34766;DHT22;20984;43.508;1.504;2024-02-21T13:11:03;16.30;99.90
34766;DHT22;20984;43.508;1.504;2024-02-21T13:13:30;16.40;99.90
34766;DHT22;20984;43.508;1.504;2024-02-21T13:15:56;16.40;99.90
34766;DHT22;20984;43.508;1.504;2024-02-21T13:18:22;16.40;99.90
34766;DHT22;20984;43.508;1.504;2024-02-21T13:20:47;16.50;99.90
34766;DHT22;20984;43.508;1.504;2024-02-21T13:23:13;16.60;99.90
34766;DHT22;20984;43.508;1.504;2024-02-21T13:25:38;16.80;99.90
34766;DHT22;20984;43.508;1.504;2024-02-21T13:28:04;16.70;99.90
34766;DHT22;20984;43.508;1.504;2024-02-21T13:30:30;16.70;99.90
34766;DHT22;20984;43.508;1.504;2024-02-21T13:32:56;16.60;99.90
34766;DHT22;20984;43.508;1.504;2024-02-21T13:35:21;16.60;99.90
34766;DHT22;20984;43.508;1.504;2024-02-21T13:37:47;16.90;99.90
34766;DHT22;20984;43.508;1.504;2024-02-21T13:40:12;16.90;99.90
34766;DHT22;20984;43.508;1.504;2024-02-21T13:42:39;16.90;99.90
34766;DHT22;20984;43.508;1.504;2024-02-21T13:45:05;17.00;99.90
34766;DHT22;20984;43.508;1.504;2024-02-21T13:47:31;17.20;99.90
34766;DHT22;20984;43.508;1.504;2024-02-21T13:49:57;17.20;99.90
34766;DHT22;20984;43.508;1.504;2024-02-21T13:52:23;17.20;99.90
34766;DHT22;20984;43.508;1.504;2024-02-21T13:54:51;17.30;99.90
34766;DHT22;20984;43.508;1.504;2024-02-21T13:57:17;17.20;99.90
34766;DHT22;20984;43.508;1.504;2024-02-21T13:59:43;17.00;99.90
34766;DHT22;20984;43.508;1.504;2024-02-21T14:02:08;17.00;99.90
34766;DHT22;20984;43.508;1.504;2024-02-21T14:04:34;17.00;99.90
34766;DHT22;20984;43.508;1.504;2024-02-21T14:07:00;17.00;99.90
34766;DHT22;20984;43.508;1.504;2024-02-21T14:09:26;17.00;99.90
34766;DHT22;20984;43.508;1.504;2024-02-21T14:11:51;17.10;99.90
34766;DHT22;20984;43.508;1.504;2024-02-21T14:14:17;17.20;99.90
34766;DHT22;20984;43.508;1.504;2024-02-21T14:16:42;17.30;99.90
34766;DHT22;20984;43.508;1.504;2024-02-21T14:19:08;17.40;99.90
34766;DHT22;20984;43.508;1.504;2024-02-21T14:21:34;17.20;99.90
34766;DHT22;20984;43.508;1.504;2024-02-21T14:24:03;17.30;99.90
34766;DHT22;20984;43.508;1.504;2024-02-21T14:26:28;17.40;99.90
34766;DHT22;20984;43.508;1.504;2024-02-21T14:28:56;17.50;99.90
34766;DHT22;20984;43.508;1.504;2024-02-21T14:31:22;17.60;99.90
34766;DHT22;20984;43.508;1.504;2024-02-21T14:33:47;17.60;99.90
34766;DHT22;20984;43.508;1.504;2024-02-21T14:36:13;17.50;99.90
34766;DHT22;20984;43.508;1.504;2024-02-21T14:38:40;17.40;99.90
34766;DHT22;20984;43.508;1.504;2024-02-21T14:41:06;17.50;99.90
34766;DHT22;20984;43.508;1.504;2024-02-21T14:43:32;17.70;99.90
34766;DHT22;20984;43.508;1.504;2024-02-21T14:45:57;17.90;99.40
34766;DHT22;20984;43.508;1.504;2024-02-21T14:48:23;17.90;99.20
34766;DHT22;20984;43.508;1.504;2024-02-21T14:50:49;17.80;98.70
34766;DHT22;20984;43.508;1.504;2024-02-21T14:53:15;17.80;98.40
34766;DHT22;20984;43.508;1.504;2024-02-21T14:55:40;17.80;98.20
34766;DHT22;20984;43.508;1.504;2024-02-21T14:58:07;17.90;99.70
34766;DHT22;20984;43.508;1.504;2024-02-21T15:00:33;17.80;98.70
34766;DHT22;20984;43.508;1.504;2024-02-21T15:02:59;17.70;98.80
34766;DHT22;20984;43.508;1.504;2024-02-21T15:05:25;17.40;97.30
34766;DHT22;20984;43.508;1.504;2024-02-21T15:07:50;17.50;98.50
34766;DHT22;20984;43.508;1.504;2024-02-21T15:10:16;17.40;99.80
34766;DHT22;20984;43.508;1.504;2024-02-21T15:12:44;17.50;97.90
34766;DHT22;20984;43.508;1.504;2024-02-21T15:15:10;17.50;98.70
34766;DHT22;20984;43.508;1.504;2024-02-21T15:17:36;17.60;98.60
34766;DHT22;20984;43.508;1.504;2024-02-21T15:20:01;17.60;98.30
34766;DHT22;20984;43.508;1.504;2024-02-21T15:22:27;17.60;98.80
34766;DHT22;20984;43.508;1.504;2024-02-21T15:24:53;17.50;98.10
34766;DHT22;20984;43.508;1.504;2024-02-21T15:27:18;17.50;99.90
34766;DHT22;20984;43.508;1.504;2024-02-21T15:29:44;17.40;99.90
34766;DHT22;20984;43.508;1.504;2024-02-21T15:32:10;17.50;99.60
34766;DHT22;20984;43.508;1.504;2024-02-21T15:34:36;17.60;99.90